Time;durP1;ratioP1;P1;durP2;ratioP2;P2;SDS_P1;SDS_P2;PMS_P1;PMS_P2;Temp;Humidity;BMP_temperature;BMP_pressure;BME280_temperature;BME280_humidity;BME280_pressure;Samples;Min_cycle;Max_cycle;Signal;HPM_P1;HPM_P2
2021/01/13 00:00:58;;;;;;;7.47;4.80;;;;;;;;;;5127732;27;20066;-56
2021/01/13 00:03:24;;;;;;;6.78;4.22;;;;;;;;;;5126668;27;20030;-56
2021/01/13 00:05:50;;;;;;;5.15;3.83;;;;;;;;;;5126087;27;20419;-56
2021/01/13 00:08:16;;;;;;;5.65;3.55;;;;;;;;;;5125951;27;20045;-56
2021/01/13 00:10:43;;;;;;;4.82;3.13;;;;;;;;;;5127007;27;20027;-56
2021/01/13 00:13:09;;;;;;;3.88;2.80;;;;;;;;;;5126247;27;20103;-56
2021/01/13 00:15:35;;;;;;;4.75;3.05;;;;;;;;;;5125989;27;20045;-56
2021/01/13 00:18:01;;;;;;;4.00;2.65;;;;;;;;;;5126870;27;20373;-57
2021/01/13 00:20:27;;;;;;;4.10;2.97;;;;;;;;;;5127256;27;20058;-57
2021/01/13 00:22:53;;;;;;;5.10;3.10;;;;;;;;;;5126721;27;20050;-57
2021/01/13 00:25:19;;;;;;;2.95;2.20;;;;;;;;;;5126273;27;20391;-57
2021/01/13 00:27:46;;;;;;;3.10;1.90;;;;;;;;;;5126706;27;20050;-57
2021/01/13 00:30:12;;;;;;;3.13;2.20;;;;;;;;;;5126485;27;20027;-57
2021/01/13 00:32:38;;;;;;;3.22;2.00;;;;;;;;;;5126331;27;20019;-57
2021/01/13 00:35:05;;;;;;;2.88;1.75;;;;;;;;;;5126083;27;20027;-57
2021/01/13 00:37:31;;;;;;;2.63;2.00;;;;;;;;;;5126392;27;20031;-57
2021/01/13 00:39:57;;;;;;;3.17;2.22;;;;;;;;;;5127066;27;20038;-56
2021/01/13 00:42:23;;;;;;;2.70;1.80;;;;;;;;;;5125937;27;20023;-57
2021/01/13 00:44:50;;;;;;;2.08;1.50;;;;;;;;;;5126044;27;20117;-57
2021/01/13 00:47:16;;;;;;;2.53;1.20;;;;;;;;;;5125056;27;20019;-57
2021/01/13 00:49:42;;;;;;;2.05;1.40;;;;;;;;;;5125903;27;20389;-57
2021/01/13 00:52:09;;;;;;;1.70;1.40;;;;;;;;;;5126020;27;20042;-56
2021/01/13 00:54:36;;;;;;;1.40;1.20;;;;;;;;;;5125456;27;20038;-57
2021/01/13 00:57:03;;;;;;;1.88;1.10;;;;;;;;;;5125677;27;20027;-57
2021/01/13 00:59:29;;;;;;;2.13;1.40;;;;;;;;;;5126661;27;20027;-57
2021/01/13 01:01:55;;;;;;;1.45;1.17;;;;;;;;;;5126523;27;20083;-56
2021/01/13 01:04:21;;;;;;;1.17;1.05;;;;;;;;;;5125721;27;20031;-56
2021/01/13 01:06:48;;;;;;;1.10;1.00;;;;;;;;;;5125859;27;20019;-56
2021/01/13 01:09:15;;;;;;;1.98;1.30;;;;;;;;;;5125693;27;20079;-57
2021/01/13 01:11:41;;;;;;;1.63;1.23;;;;;;;;;;5125754;27;20428;-57
2021/01/13 01:14:07;;;;;;;2.00;1.30;;;;;;;;;;5125312;27;20140;-58
2021/01/13 01:16:35;;;;;;;2.58;1.77;;;;;;;;;;5126280;27;20023;-57
2021/01/13 01:19:01;;;;;;;3.40;2.47;;;;;;;;;;5125405;27;20031;-57
2021/01/13 01:21:27;;;;;;;3.55;2.38;;;;;;;;;;5126731;27;20088;-57
2021/01/13 01:23:53;;;;;;;2.35;2.15;;;;;;;;;;5125697;27;20027;-57
2021/01/13 01:26:21;;;;;;;2.53;1.70;;;;;;;;;;5125401;27;20088;-57
2021/01/13 01:28:47;;;;;;;1.85;1.38;;;;;;;;;;5125429;27;20346;-57
2021/01/13 01:31:13;;;;;;;2.88;1.60;;;;;;;;;;5125112;27;20034;-57
2021/01/13 01:33:39;;;;;;;1.73;1.38;;;;;;;;;;5125247;27;20106;-57
2021/01/13 01:36:05;;;;;;;2.05;1.50;;;;;;;;;;5125242;27;20071;-57
2021/01/13 01:38:33;;;;;;;2.25;1.55;;;;;;;;;;5125512;27;20039;-57
2021/01/13 01:41:10;;;;;;;3.10;2.03;;;;;;;;;;5126196;27;20102;-57
2021/01/13 01:43:36;;;;;;;3.33;2.38;;;;;;;;;;5125616;27;20692;-57
2021/01/13 01:46:04;;;;;;;3.20;2.45;;;;;;;;;;5124971;27;20031;-57
2021/01/13 01:48:33;;;;;;;3.85;2.58;;;;;;;;;;5125611;27;20519;-57
2021/01/13 01:51:01;;;;;;;3.50;2.70;;;;;;;;;;5125868;28;20023;-57
2021/01/13 01:53:32;;;;;;;3.60;2.80;;;;;;;;;;5125391;28;20042;-57
2021/01/13 01:55:58;;;;;;;3.95;2.92;;;;;;;;;;5125940;28;20388;-57
2021/01/13 01:58:31;;;;;;;4.22;2.97;;;;;;;;;;5124673;28;20030;-57
2021/01/13 02:00:58;;;;;;;4.20;3.08;;;;;;;;;;5126051;28;20488;-57
2021/01/13 02:03:45;;;;;;;2.97;2.28;;;;;;;;;;5124597;28;20076;-57
2021/01/13 02:06:14;;;;;;;3.78;2.55;;;;;;;;;;5124779;28;20023;-57
2021/01/13 02:08:41;;;;;;;3.72;2.47;;;;;;;;;;5125081;27;20047;-57
2021/01/13 02:11:14;;;;;;;2.65;2.03;;;;;;;;;;5124587;28;20102;-57
2021/01/13 02:13:40;;;;;;;3.40;2.22;;;;;;;;;;5125013;27;20037;-57
2021/01/13 02:16:06;;;;;;;3.03;2.40;;;;;;;;;;5125029;28;20051;-57
2021/01/13 02:18:35;;;;;;;2.60;2.10;;;;;;;;;;5124912;28;20031;-57
2021/01/13 02:21:03;;;;;;;2.45;2.00;;;;;;;;;;5125407;28;20050;-57
2021/01/13 02:23:33;;;;;;;2.17;1.88;;;;;;;;;;5125271;28;20492;-57
2021/01/13 02:26:02;;;;;;;2.70;1.98;;;;;;;;;;5125439;28;20103;-57
2021/01/13 02:28:29;;;;;;;2.10;1.67;;;;;;;;;;5125428;28;20028;-57
2021/01/13 02:31:04;;;;;;;1.98;1.50;;;;;;;;;;5124822;28;20581;-57
2021/01/13 02:33:31;;;;;;;1.77;1.58;;;;;;;;;;5125282;28;20027;-57
2021/01/13 02:36:07;;;;;;;2.17;1.85;;;;;;;;;;5125489;28;20058;-57
2021/01/13 02:38:34;;;;;;;2.22;1.90;;;;;;;;;;5126885;27;20112;-57
2021/01/13 02:41:00;;;;;;;2.83;2.08;;;;;;;;;;5129383;27;20027;-57
2021/01/13 02:43:28;;;;;;;3.47;2.63;;;;;;;;;;5128947;27;20041;-57
2021/01/13 02:45:56;;;;;;;2.08;1.77;;;;;;;;;;5128755;27;20526;-57
2021/01/13 02:48:24;;;;;;;2.30;2.00;;;;;;;;;;5128049;27;20527;-57
2021/01/13 02:50:55;;;;;;;2.00;1.70;;;;;;;;;;5128580;27;20438;-57
2021/01/13 02:53:21;;;;;;;1.50;1.40;;;;;;;;;;5127652;27;20028;-57
2021/01/13 02:55:47;;;;;;;2.10;1.60;;;;;;;;;;5128549;27;20050;-57
2021/01/13 02:58:33;;;;;;;2.10;1.80;;;;;;;;;;5128296;27;20130;-57
2021/01/13 03:00:59;;;;;;;2.58;1.70;;;;;;;;;;5128828;27;20058;-57
2021/01/13 03:03:26;;;;;;;1.38;1.23;;;;;;;;;;5127865;27;20518;-57
2021/01/13 03:05:53;;;;;;;1.88;1.35;;;;;;;;;;5128186;27;20028;-57
2021/01/13 03:08:25;;;;;;;1.52;1.25;;;;;;;;;;5127960;27;20020;-57
2021/01/13 03:10:53;;;;;;;1.48;1.20;;;;;;;;;;5128195;27;20102;-57
2021/01/13 03:13:25;;;;;;;1.08;1.00;;;;;;;;;;5127774;27;20528;-57
2021/01/13 03:15:51;;;;;;;1.20;1.10;;;;;;;;;;5128018;27;20059;-57
2021/01/13 03:18:22;;;;;;;1.92;1.60;;;;;;;;;;5127889;27;20397;-57
2021/01/13 03:21:04;;;;;;;1.20;1.00;;;;;;;;;;5127893;27;20031;-56
2021/01/13 03:23:49;;;;;;;1.20;1.05;;;;;;;;;;5128658;27;20110;-56
2021/01/13 03:26:20;;;;;;;1.02;0.90;;;;;;;;;;5127605;27;20049;-56
2021/01/13 03:28:50;;;;;;;1.17;1.08;;;;;;;;;;5128088;27;20098;-56
2021/01/13 03:31:22;;;;;;;1.10;1.00;;;;;;;;;;5126866;27;20075;-56
2021/01/13 03:33:53;;;;;;;0.98;0.93;;;;;;;;;;5128209;27;20028;-57
2021/01/13 03:36:24;;;;;;;1.92;1.38;;;;;;;;;;5125985;27;20053;-57
2021/01/13 03:39:09;;;;;;;1.80;1.35;;;;;;;;;;5128186;27;20036;-56
2021/01/13 03:41:35;;;;;;;;;;;;;;;;;;5127874;27;20226;-56
2021/01/13 03:44:08;;;;;;;1.10;1.00;;;;;;;;;;5127834;27;19952;-56
2021/01/13 03:46:34;;;;;;;1.48;1.20;;;;;;;;;;5126432;27;20321;-56
2021/01/13 03:49:03;;;;;;;1.60;1.35;;;;;;;;;;5126237;27;20492;-57
2021/01/13 03:51:29;;;;;;;1.33;1.13;;;;;;;;;;5127183;27;20019;-57
2021/01/13 03:54:00;;;;;;;1.40;1.30;;;;;;;;;;5126749;27;20027;-57
2021/01/13 03:56:27;;;;;;;1.38;1.00;;;;;;;;;;5127066;27;20027;-56
2021/01/13 03:58:53;;;;;;;2.05;1.27;;;;;;;;;;5127555;27;20027;-56
2021/01/13 04:01:22;;;;;;;1.88;1.40;;;;;;;;;;5127082;27;20031;-56
2021/01/13 04:03:55;;;;;;;2.40;1.63;;;;;;;;;;5127047;27;20075;-56
2021/01/13 04:06:21;;;;;;;2.13;1.40;;;;;;;;;;5126684;27;20019;-57
2021/01/13 04:08:48;;;;;;;1.52;1.30;;;;;;;;;;5126584;27;20019;-57
2021/01/13 04:11:16;;;;;;;1.80;1.63;;;;;;;;;;5126744;27;20360;-57
2021/01/13 04:13:45;;;;;;;1.85;1.30;;;;;;;;;;5126830;27;20104;-56
2021/01/13 04:16:11;;;;;;;3.05;1.77;;;;;;;;;;5126507;27;20030;-56
2021/01/13 04:18:38;;;;;;;2.17;1.60;;;;;;;;;;5126728;27;20023;-56
2021/01/13 04:21:07;;;;;;;2.17;1.60;;;;;;;;;;5126490;27;20445;-56
2021/01/13 04:23:33;;;;;;;2.17;1.67;;;;;;;;;;5125253;27;20019;-56
2021/01/13 04:25:59;;;;;;;1.92;1.30;;;;;;;;;;5126637;27;20038;-57
2021/01/13 04:28:26;;;;;;;1.13;1.02;;;;;;;;;;5126241;27;20046;-56
2021/01/13 04:30:53;;;;;;;2.00;1.30;;;;;;;;;;5126838;27;20027;-56
2021/01/13 04:33:20;;;;;;;1.77;1.38;;;;;;;;;;5126594;27;20561;-56
2021/01/13 04:35:47;;;;;;;2.30;1.50;;;;;;;;;;5126676;27;20031;-56
2021/01/13 04:38:17;;;;;;;2.30;1.30;;;;;;;;;;5122810;27;20040;-56
2021/01/13 04:40:48;;;;;;;2.72;1.63;;;;;;;;;;5108533;27;20028;-56
2021/01/13 04:43:14;;;;;;;2.03;1.40;;;;;;;;;;5119460;27;20538;-56
2021/01/13 04:45:42;;;;;;;1.30;1.20;;;;;;;;;;5106823;28;20496;-56
2021/01/13 04:48:08;;;;;;;2.17;1.40;;;;;;;;;;5113725;27;20016;-56
2021/01/13 04:50:36;;;;;;;2.50;1.40;;;;;;;;;;5127925;27;20031;-56
2021/01/13 04:53:06;;;;;;;2.65;1.67;;;;;;;;;;5127301;27;20361;-56
2021/01/13 04:55:42;;;;;;;1.73;0.95;;;;;;;;;;5127886;27;20042;-56
2021/01/13 04:58:21;;;;;;;1.23;1.08;;;;;;;;;;5127581;27;20026;-56
2021/01/13 05:00:56;;;;;;;1.10;0.90;;;;;;;;;;5119956;27;20036;-56
2021/01/13 05:03:41;;;;;;;0.90;0.82;;;;;;;;;;5107471;28;20023;-56
2021/01/13 05:06:13;;;;;;;1.23;0.80;;;;;;;;;;5106774;28;20488;-56
2021/01/13 05:08:41;;;;;;;1.00;0.90;;;;;;;;;;5118452;27;20031;-56
2021/01/13 05:11:10;;;;;;;1.33;1.00;;;;;;;;;;5125630;27;20800;-56
2021/01/13 05:13:36;;;;;;;1.23;1.08;;;;;;;;;;5107021;27;20073;-56
2021/01/13 05:16:09;;;;;;;1.58;1.20;;;;;;;;;;5106546;28;20507;-56
2021/01/13 05:18:52;;;;;;;1.40;1.30;;;;;;;;;;5105973;28;20034;-56
2021/01/13 05:21:19;;;;;;;1.08;0.98;;;;;;;;;;5125466;27;20400;-56
2021/01/13 05:23:48;;;;;;;1.35;1.20;;;;;;;;;;5125550;27;20027;-55
2021/01/13 05:26:25;;;;;;;1.80;1.23;;;;;;;;;;5125247;27;20027;-56
2021/01/13 05:29:03;;;;;;;1.63;1.30;;;;;;;;;;5124555;27;20015;-56
2021/01/13 05:31:32;;;;;;;1.42;1.17;;;;;;;;;;5113622;27;20490;-56
2021/01/13 05:34:00;;;;;;;1.50;1.30;;;;;;;;;;5123607;27;20062;-56
2021/01/13 05:36:29;;;;;;;1.42;1.33;;;;;;;;;;5109113;27;20043;-57
2021/01/13 05:39:06;;;;;;;1.52;1.20;;;;;;;;;;5104661;28;20027;-56
2021/01/13 05:41:32;;;;;;;1.63;1.40;;;;;;;;;;5104685;28;20117;-56
2021/01/13 05:43:58;;;;;;;1.35;1.25;;;;;;;;;;5104056;28;20078;-57
2021/01/13 05:46:24;;;;;;;1.55;1.10;;;;;;;;;;5104329;28;20028;-56
2021/01/13 05:48:54;;;;;;;1.48;1.15;;;;;;;;;;5105264;28;20454;-56
2021/01/13 05:51:29;;;;;;;1.58;1.15;;;;;;;;;;5104864;28;20073;-56
2021/01/13 05:53:56;;;;;;;1.35;1.20;;;;;;;;;;5104009;28;20020;-57
2021/01/13 05:56:22;;;;;;;1.30;1.20;;;;;;;;;;5105052;28;20024;-57
2021/01/13 05:58:59;;;;;;;1.58;1.42;;;;;;;;;;5104651;28;20028;-56
2021/01/13 06:01:36;;;;;;;1.67;1.45;;;;;;;;;;5104009;28;20443;-56
2021/01/13 06:04:06;;;;;;;1.98;1.50;;;;;;;;;;5103572;28;20623;-57
2021/01/13 06:06:36;;;;;;;1.92;1.50;;;;;;;;;;5104109;28;20115;-56
2021/01/13 06:09:03;;;;;;;2.97;2.00;;;;;;;;;;5103590;28;20034;-56
2021/01/13 06:11:33;;;;;;;2.88;1.75;;;;;;;;;;5104784;28;20023;-56
2021/01/13 06:14:06;;;;;;;2.97;2.00;;;;;;;;;;5107338;28;20596;-56
2021/01/13 06:16:32;;;;;;;2.28;1.77;;;;;;;;;;5119716;27;20672;-56
2021/01/13 06:18:59;;;;;;;2.88;2.00;;;;;;;;;;5130513;27;20026;-56
2021/01/13 06:21:25;;;;;;;3.05;2.13;;;;;;;;;;5129306;27;20066;-56
2021/01/13 06:23:52;;;;;;;2.20;1.70;;;;;;;;;;5110020;28;20061;-56
2021/01/13 06:26:19;;;;;;;2.40;1.85;;;;;;;;;;5109585;28;20428;-56
2021/01/13 06:29:00;;;;;;;3.53;1.88;;;;;;;;;;5109826;28;20163;-56
2021/01/13 06:31:26;;;;;;;3.22;1.83;;;;;;;;;;5109342;28;20059;-56
2021/01/13 06:34:07;;;;;;;2.50;1.73;;;;;;;;;;5113251;27;20026;-56
2021/01/13 06:37:06;;;;;;;3.42;2.25;;;;;;;;;;5130545;27;20042;-56
2021/01/13 06:39:33;;;;;;;2.70;2.10;;;;;;;;;;5095969;27;20037;-56
2021/01/13 06:41:59;;;;;;;3.00;2.42;;;;;;;;;;5130297;27;20035;-56
2021/01/13 06:44:25;;;;;;;4.57;2.40;;;;;;;;;;5128988;27;20480;-56
2021/01/13 06:46:53;;;;;;;3.22;2.28;;;;;;;;;;5129731;27;20132;-55
2021/01/13 06:49:23;;;;;;;4.13;2.28;;;;;;;;;;5130111;27;20015;-55
2021/01/13 06:51:50;;;;;;;3.22;2.28;;;;;;;;;;5130163;27;20631;-53
2021/01/13 06:54:18;;;;;;;2.97;2.05;;;;;;;;;;5129452;27;20023;-55
2021/01/13 06:56:47;;;;;;;3.33;2.20;;;;;;;;;;5130080;27;20080;-56
2021/01/13 06:59:14;;;;;;;2.97;2.30;;;;;;;;;;5129293;27;20027;-56
2021/01/13 07:01:59;;;;;;;3.30;2.50;;;;;;;;;;5130178;27;20484;-56
2021/01/13 07:04:26;;;;;;;3.25;2.28;;;;;;;;;;5107945;28;20023;-56
2021/01/13 07:07:02;;;;;;;3.28;2.22;;;;;;;;;;5109019;28;20083;-56
2021/01/13 07:09:44;;;;;;;2.72;2.20;;;;;;;;;;5109221;28;20520;-56
2021/01/13 07:12:12;;;;;;;3.20;2.58;;;;;;;;;;5108776;28;20040;-56
2021/01/13 07:14:39;;;;;;;4.40;2.80;;;;;;;;;;5109509;28;20118;-56
2021/01/13 07:17:10;;;;;;;4.63;2.75;;;;;;;;;;5109190;28;20034;-56
2021/01/13 07:19:36;;;;;;;2.28;1.90;;;;;;;;;;5109704;28;20020;-56
2021/01/13 07:22:03;;;;;;;3.13;2.20;;;;;;;;;;5108802;27;20031;-56
2021/01/13 07:24:29;;;;;;;2.85;2.05;;;;;;;;;;5108762;28;20556;-56
2021/01/13 07:26:57;;;;;;;2.88;1.92;;;;;;;;;;5089042;28;20040;-56
2021/01/13 07:29:24;;;;;;;2.15;1.70;;;;;;;;;;5089108;28;20448;-58
2021/01/13 07:31:52;;;;;;;2.78;2.03;;;;;;;;;;5105432;28;20042;-57
2021/01/13 07:34:33;;;;;;;2.88;1.95;;;;;;;;;;5109266;28;20054;-56
2021/01/13 07:37:01;;;;;;;2.33;1.88;;;;;;;;;;5108460;28;20027;-56
2021/01/13 07:39:42;;;;;;;2.60;1.83;;;;;;;;;;5108490;28;20492;-56
2021/01/13 07:42:16;;;;;;;3.70;2.45;;;;;;;;;;5107297;28;20342;-56
2021/01/13 07:44:44;;;;;;;4.68;2.85;;;;;;;;;;5108362;28;20026;-56
2021/01/13 07:47:22;;;;;;;3.67;2.60;;;;;;;;;;5108178;28;20110;-57
2021/01/13 07:49:55;;;;;;;4.28;3.20;;;;;;;;;;5108842;28;20500;-56
2021/01/13 07:52:23;;;;;;;3.63;2.85;;;;;;;;;;5108487;28;20073;-56
2021/01/13 07:54:50;;;;;;;4.00;2.85;;;;;;;;;;5108873;28;20485;-56
2021/01/13 07:57:22;;;;;;;4.65;3.30;;;;;;;;;;5108217;28;20385;-55
2021/01/13 07:59:51;;;;;;;4.00;2.63;;;;;;;;;;5108663;28;20532;-55
2021/01/13 08:02:35;;;;;;;4.05;3.00;;;;;;;;;;5107272;28;20130;-56
2021/01/13 08:05:25;;;;;;;3.47;2.83;;;;;;;;;;5107765;28;20465;-56
2021/01/13 08:08:10;;;;;;;3.97;3.08;;;;;;;;;;5070207;28;20036;-55
2021/01/13 08:10:40;;;;;;;4.03;2.63;;;;;;;;;;5107890;28;20080;-56
2021/01/13 08:13:15;;;;;;;5.40;3.25;;;;;;;;;;5107518;28;20024;-56
2021/01/13 08:16:00;;;;;;;7.43;4.22;;;;;;;;;;5107964;28;20861;-56
2021/01/13 08:18:53;;;;;;;8.18;4.30;;;;;;;;;;5107587;28;20058;-56
2021/01/13 08:21:24;;;;;;;6.05;3.40;;;;;;;;;;5108372;28;20024;-56
2021/01/13 08:23:51;;;;;;;6.30;3.72;;;;;;;;;;5109932;27;20030;-57
2021/01/13 08:26:18;;;;;;;7.35;4.30;;;;;;;;;;5106470;28;20489;-56
2021/01/13 08:28:46;;;;;;;8.20;4.55;;;;;;;;;;5105927;28;20108;-55
2021/01/13 08:31:18;;;;;;;6.93;4.40;;;;;;;;;;5104944;28;20497;-55
2021/01/13 08:33:45;;;;;;;9.20;5.15;;;;;;;;;;5105366;28;20023;-54
2021/01/13 08:36:12;;;;;;;8.55;4.75;;;;;;;;;;5104289;28;20098;-52
2021/01/13 08:38:58;;;;;;;6.95;4.10;;;;;;;;;;5084963;28;20032;-55
2021/01/13 08:41:25;;;;;;;5.57;3.83;;;;;;;;;;5103382;27;20019;-56
2021/01/13 08:44:02;;;;;;;5.95;4.07;;;;;;;;;;5107501;27;20032;-54
2021/01/13 08:46:33;;;;;;;5.82;4.03;;;;;;;;;;5101273;27;20034;-53
2021/01/13 08:49:00;;;;;;;5.55;3.40;;;;;;;;;;5103381;27;20051;-55
2021/01/13 08:51:26;;;;;;;5.15;3.53;;;;;;;;;;5094661;27;20534;-54
2021/01/13 08:53:52;;;;;;;4.55;3.45;;;;;;;;;;5106520;28;20138;-55
2021/01/13 08:56:19;;;;;;;4.97;3.83;;;;;;;;;;5106003;27;20459;-55
2021/01/13 08:58:55;;;;;;;5.13;3.53;;;;;;;;;;5105889;28;20039;-56
2021/01/13 09:01:21;;;;;;;4.70;3.47;;;;;;;;;;5102561;28;20477;-56
2021/01/13 09:03:52;;;;;;;5.78;3.60;;;;;;;;;;5095747;28;20439;-54
2021/01/13 09:06:21;;;;;;;4.82;3.63;;;;;;;;;;5107245;28;20024;-55
2021/01/13 09:08:48;;;;;;;5.93;4.00;;;;;;;;;;5106378;28;20042;-52
2021/01/13 09:11:35;;;;;;;7.07;4.63;;;;;;;;;;5104743;28;20136;-54
2021/01/13 09:14:20;;;;;;;8.15;4.55;;;;;;;;;;5105586;28;20607;-53
2021/01/13 09:16:53;;;;;;;5.07;3.53;;;;;;;;;;5087057;27;20110;-55
2021/01/13 09:19:35;;;;;;;4.97;3.55;;;;;;;;;;5099068;28;20039;-55
2021/01/13 09:22:02;;;;;;;4.88;3.17;;;;;;;;;;5106089;28;20024;-55
2021/01/13 09:24:46;;;;;;;5.30;3.72;;;;;;;;;;5103188;28;20031;-56
2021/01/13 09:27:13;;;;;;;4.53;3.20;;;;;;;;;;5093496;28;20032;-53
2021/01/13 09:29:48;;;;;;;5.25;3.55;;;;;;;;;;5105305;28;20107;-51
2021/01/13 09:32:19;;;;;;;5.68;4.05;;;;;;;;;;5104711;28;20027;-54
2021/01/13 09:34:45;;;;;;;5.85;4.20;;;;;;;;;;5086577;28;20117;-54
2021/01/13 09:37:12;;;;;;;5.72;4.03;;;;;;;;;;5085600;28;20024;-54
2021/01/13 09:39:39;;;;;;;7.35;5.00;;;;;;;;;;5085959;28;20063;-53
2021/01/13 09:42:06;;;;;;;6.70;4.85;;;;;;;;;;5092638;28;20023;-54
2021/01/13 09:44:34;;;;;;;5.93;4.20;;;;;;;;;;5104868;28;20043;-55
2021/01/13 09:47:00;;;;;;;5.68;4.18;;;;;;;;;;5100664;28;20056;-54
2021/01/13 09:49:26;;;;;;;5.20;3.50;;;;;;;;;;5105036;28;20058;-55
2021/01/13 09:51:52;;;;;;;5.53;3.45;;;;;;;;;;5104463;28;20462;-56
2021/01/13 09:54:22;;;;;;;5.88;3.58;;;;;;;;;;5105868;28;20422;-54
2021/01/13 09:56:54;;;;;;;5.90;3.65;;;;;;;;;;5106038;28;20396;-54
2021/01/13 09:59:23;;;;;;;5.15;3.47;;;;;;;;;;5099710;28;20027;-54
2021/01/13 10:01:54;;;;;;;4.93;3.47;;;;;;;;;;5109752;28;20030;-55
2021/01/13 10:04:21;;;;;;;4.95;3.33;;;;;;;;;;5107424;28;20034;-56
2021/01/13 10:06:52;;;;;;;5.72;3.83;;;;;;;;;;5091561;28;20027;-57
2021/01/13 10:09:19;;;;;;;5.45;3.90;;;;;;;;;;5083987;28;20585;-57
2021/01/13 10:11:45;;;;;;;6.88;4.10;;;;;;;;;;5083899;28;20020;-57
2021/01/13 10:14:16;;;;;;;7.68;5.00;;;;;;;;;;5100644;28;20571;-57
2021/01/13 10:16:43;;;;;;;7.32;4.82;;;;;;;;;;5104165;28;20085;-56
2021/01/13 10:19:10;;;;;;;7.65;4.93;;;;;;;;;;5094675;28;20504;-57
2021/01/13 10:21:38;;;;;;;8.60;4.97;;;;;;;;;;5092926;28;20449;-56
2021/01/13 10:24:09;;;;;;;7.07;4.40;;;;;;;;;;5102432;28;20023;-56
2021/01/13 10:26:36;;;;;;;9.32;5.55;;;;;;;;;;5125360;28;20437;-57
2021/01/13 10:29:02;;;;;;;6.63;4.60;;;;;;;;;;5107467;28;20024;-57
2021/01/13 10:31:29;;;;;;;7.47;4.40;;;;;;;;;;5092883;28;20524;-57
2021/01/13 10:33:56;;;;;;;6.20;4.15;;;;;;;;;;5096127;28;20565;-57
2021/01/13 10:36:25;;;;;;;4.68;3.40;;;;;;;;;;5100729;28;20027;-57
2021/01/13 10:38:51;;;;;;;5.15;3.50;;;;;;;;;;5124801;28;20031;-57
2021/01/13 10:41:33;;;;;;;4.15;3.28;;;;;;;;;;5109898;28;20056;-57
2021/01/13 10:44:01;;;;;;;4.00;2.72;;;;;;;;;;5103889;28;20034;-55
2021/01/13 10:46:30;;;;;;;3.45;2.80;;;;;;;;;;5102887;28;20075;-56
2021/01/13 10:49:02;;;;;;;4.53;3.05;;;;;;;;;;5104076;28;20042;-56
2021/01/13 10:51:31;;;;;;;4.40;3.10;;;;;;;;;;5104157;28;20055;-56
2021/01/13 10:53:59;;;;;;;4.13;3.28;;;;;;;;;;5093090;28;20024;-57
2021/01/13 10:56:27;;;;;;;4.43;3.72;;;;;;;;;;5084936;28;20020;-56
2021/01/13 10:58:58;;;;;;;4.72;3.63;;;;;;;;;;5084837;28;20038;-57
2021/01/13 11:01:27;;;;;;;6.30;4.25;;;;;;;;;;5087576;28;20028;-57
2021/01/13 11:03:53;;;;;;;5.70;3.92;;;;;;;;;;5087670;28;20036;-57
2021/01/13 11:06:23;;;;;;;7.85;4.70;;;;;;;;;;5087989;28;20024;-57
2021/01/13 11:08:52;;;;;;;8.85;5.10;;;;;;;;;;5087919;28;20024;-57
2021/01/13 11:11:19;;;;;;;7.93;5.20;;;;;;;;;;5087866;28;20529;-57
2021/01/13 11:13:46;;;;;;;7.40;4.55;;;;;;;;;;5086894;28;20063;-57
2021/01/13 11:16:12;;;;;;;6.13;4.00;;;;;;;;;;5086823;28;20073;-57
2021/01/13 11:18:38;;;;;;;6.43;4.07;;;;;;;;;;5087263;28;20453;-57
2021/01/13 11:21:08;;;;;;;8.63;5.28;;;;;;;;;;5086118;28;20481;-57
2021/01/13 11:24:01;;;;;;;11.30;6.28;;;;;;;;;;5087048;28;20089;-57
2021/01/13 11:26:35;;;;;;;13.77;7.88;;;;;;;;;;5100124;28;20038;-57
2021/01/13 11:29:02;;;;;;;13.77;7.97;;;;;;;;;;5108170;28;20098;-57
2021/01/13 11:31:29;;;;;;;10.27;6.72;;;;;;;;;;5105689;28;20489;-57
2021/01/13 11:33:56;;;;;;;11.68;6.50;;;;;;;;;;5107150;28;20443;-57
2021/01/13 11:36:26;;;;;;;8.48;5.05;;;;;;;;;;5106607;28;20382;-57
2021/01/13 11:38:55;;;;;;;7.32;4.38;;;;;;;;;;5106471;28;20027;-57
2021/01/13 11:41:43;;;;;;;5.22;3.70;;;;;;;;;;5105578;28;20019;-57
2021/01/13 11:44:29;;;;;;;6.18;3.70;;;;;;;;;;5106793;28;20028;-57
2021/01/13 11:46:58;;;;;;;5.30;3.53;;;;;;;;;;5106707;27;20051;-57
2021/01/13 11:49:34;;;;;;;5.05;3.65;;;;;;;;;;5106817;28;20047;-57
2021/01/13 11:52:08;;;;;;;5.57;4.25;;;;;;;;;;5107701;28;20022;-57
2021/01/13 11:54:34;;;;;;;6.78;4.75;;;;;;;;;;5106421;28;20036;-57
2021/01/13 11:57:20;;;;;;;6.43;4.68;;;;;;;;;;5106574;28;20517;-57
2021/01/13 11:59:47;;;;;;;8.73;5.05;;;;;;;;;;5107130;28;20042;-57
2021/01/13 12:02:18;;;;;;;7.75;5.05;;;;;;;;;;5105218;28;20104;-57
2021/01/13 12:04:44;;;;;;;7.47;5.03;;;;;;;;;;5097118;28;20043;-57
2021/01/13 12:07:10;;;;;;;6.78;4.20;;;;;;;;;;5117534;27;20025;-56
2021/01/13 12:09:36;;;;;;;5.15;3.88;;;;;;;;;;5124911;27;20327;-57
2021/01/13 12:12:05;;;;;;;6.13;3.85;;;;;;;;;;5100943;28;20024;-57
2021/01/13 12:14:39;;;;;;;4.72;3.17;;;;;;;;;;5107782;27;20034;-57
2021/01/13 12:17:05;;;;;;;4.87;3.60;;;;;;;;;;5104468;27;20445;-57
2021/01/13 12:19:37;;;;;;;4.78;3.75;;;;;;;;;;5096345;27;20332;-57
2021/01/13 12:22:03;;;;;;;5.45;3.78;;;;;;;;;;5102162;28;20032;-57
2021/01/13 12:24:50;;;;;;;5.65;4.10;;;;;;;;;;5104631;27;20019;-57
2021/01/13 12:27:19;;;;;;;5.72;3.65;;;;;;;;;;5124407;27;20031;-57
2021/01/13 12:29:46;;;;;;;4.43;3.67;;;;;;;;;;5105818;28;20023;-56
2021/01/13 12:32:13;;;;;;;6.38;4.60;;;;;;;;;;5101224;27;20035;-57
2021/01/13 12:34:39;;;;;;;6.80;4.15;;;;;;;;;;5105811;27;20112;-56
2021/01/13 12:37:06;;;;;;;6.28;4.38;;;;;;;;;;5104533;28;20278;-54
2021/01/13 12:39:34;;;;;;;5.53;4.13;;;;;;;;;;5105444;28;20024;-56
2021/01/13 12:42:01;;;;;;;6.07;4.30;;;;;;;;;;5103085;28;20035;-56
2021/01/13 12:44:27;;;;;;;6.03;4.18;;;;;;;;;;5094017;27;20063;-55
2021/01/13 12:47:03;;;;;;;7.35;4.68;;;;;;;;;;5108750;27;20568;-56
2021/01/13 12:49:31;;;;;;;7.57;4.57;;;;;;;;;;5105197;28;20047;-56
2021/01/13 12:51:58;;;;;;;6.45;4.45;;;;;;;;;;5105341;28;20136;-56
2021/01/13 12:54:25;;;;;;;5.65;4.25;;;;;;;;;;5104358;28;20027;-55
2021/01/13 12:56:52;;;;;;;5.95;4.22;;;;;;;;;;5104062;28;20524;-56
2021/01/13 12:59:19;;;;;;;6.50;4.70;;;;;;;;;;5105284;28;20049;-53
2021/01/13 13:01:46;;;;;;;6.90;4.60;;;;;;;;;;5105412;28;20566;-54
2021/01/13 13:04:12;;;;;;;6.82;4.70;;;;;;;;;;5104715;28;20166;-56
2021/01/13 13:06:39;;;;;;;5.45;3.70;;;;;;;;;;5104679;28;20457;-56
2021/01/13 13:09:12;;;;;;;5.88;3.67;;;;;;;;;;5104605;28;20059;-57
2021/01/13 13:11:38;;;;;;;5.93;3.97;;;;;;;;;;5104533;28;20542;-57
2021/01/13 13:14:04;;;;;;;5.43;3.88;;;;;;;;;;5104222;28;20031;-56
2021/01/13 13:16:31;;;;;;;5.25;3.80;;;;;;;;;;5104703;28;20548;-57
2021/01/13 13:18:58;;;;;;;6.35;4.10;;;;;;;;;;5104452;28;20062;-57
2021/01/13 13:21:25;;;;;;;6.60;4.60;;;;;;;;;;5104123;28;20058;-57
2021/01/13 13:23:51;;;;;;;5.72;4.15;;;;;;;;;;5088200;28;20032;-56
2021/01/13 13:26:17;;;;;;;6.20;4.20;;;;;;;;;;5083841;28;20482;-57
2021/01/13 13:28:44;;;;;;;6.30;4.40;;;;;;;;;;5083804;28;20455;-56
2021/01/13 13:31:15;;;;;;;7.13;5.07;;;;;;;;;;5083826;28;20047;-57
2021/01/13 13:33:41;;;;;;;5.85;4.38;;;;;;;;;;5093085;28;20024;-56
2021/01/13 13:36:08;;;;;;;8.55;4.85;;;;;;;;;;5104514;28;20094;-57
2021/01/13 13:38:34;;;;;;;5.70;3.97;;;;;;;;;;5103986;28;20408;-56
2021/01/13 13:41:00;;;;;;;6.20;4.35;;;;;;;;;;5103820;28;20545;-56
2021/01/13 13:43:26;;;;;;;8.55;5.20;;;;;;;;;;5104062;28;20106;-55
2021/01/13 13:45:52;;;;;;;10.90;6.07;;;;;;;;;;5104066;28;20206;-55
2021/01/13 13:48:18;;;;;;;9.75;5.70;;;;;;;;;;5103705;28;20032;-56
2021/01/13 13:50:44;;;;;;;9.55;5.07;;;;;;;;;;5104309;28;20050;-56
2021/01/13 13:53:11;;;;;;;8.57;5.22;;;;;;;;;;5103246;28;20477;-57
2021/01/13 13:55:37;;;;;;;9.20;5.10;;;;;;;;;;5098972;28;20038;-56
2021/01/13 13:58:04;;;;;;;8.13;5.05;;;;;;;;;;5092415;28;20034;-55
2021/01/13 14:00:31;;;;;;;8.88;4.97;;;;;;;;;;5083356;28;20032;-56
2021/01/13 14:02:57;;;;;;;7.35;4.43;;;;;;;;;;5098461;28;20030;-56
2021/01/13 14:05:23;;;;;;;7.82;5.07;;;;;;;;;;5103432;28;20027;-57
2021/01/13 14:07:50;;;;;;;8.50;4.85;;;;;;;;;;5103807;28;20035;-56
2021/01/13 14:10:16;;;;;;;8.48;4.68;;;;;;;;;;5103198;28;20058;-56
2021/01/13 14:12:43;;;;;;;8.40;5.05;;;;;;;;;;5103385;28;20102;-55
2021/01/13 14:15:10;;;;;;;7.65;5.28;;;;;;;;;;5102455;28;20032;-56
2021/01/13 14:17:36;;;;;;;9.13;5.30;;;;;;;;;;5103957;28;20024;-55
2021/01/13 14:20:03;;;;;;;8.88;5.32;;;;;;;;;;5103559;28;20038;-55
2021/01/13 14:22:29;;;;;;;13.30;7.03;;;;;;;;;;5104299;28;20168;-56
2021/01/13 14:24:55;;;;;;;10.90;6.75;;;;;;;;;;5102301;28;20374;-56
2021/01/13 14:27:21;;;;;;;15.88;8.90;;;;;;;;;;5101402;28;20027;-57
2021/01/13 14:29:47;;;;;;;15.35;8.43;;;;;;;;;;5099352;28;20146;-55
2021/01/13 14:32:15;;;;;;;20.13;9.90;;;;;;;;;;5103199;28;20487;-56
2021/01/13 14:34:42;;;;;;;18.02;10.05;;;;;;;;;;5106589;28;20432;-56
2021/01/13 14:37:08;;;;;;;16.08;9.05;;;;;;;;;;5107305;28;20032;-56
2021/01/13 14:39:35;;;;;;;14.27;7.85;;;;;;;;;;5106209;28;20058;-55
2021/01/13 14:42:10;;;;;;;10.23;6.43;;;;;;;;;;5107850;28;20023;-55
2021/01/13 14:44:37;;;;;;;10.65;5.93;;;;;;;;;;5106697;28;20034;-54
2021/01/13 14:47:07;;;;;;;8.23;5.35;;;;;;;;;;5108100;27;20023;-57
2021/01/13 14:49:33;;;;;;;7.15;4.78;;;;;;;;;;5108216;28;20493;-55
2021/01/13 14:51:59;;;;;;;7.10;4.28;;;;;;;;;;5108081;28;20125;-56
2021/01/13 14:54:25;;;;;;;8.40;4.85;;;;;;;;;;5106556;28;20034;-52
2021/01/13 14:56:51;;;;;;;7.95;4.68;;;;;;;;;;5107426;28;20027;-57